Time;durP1;ratioP1;P1;durP2;ratioP2;P2;SDS_P1;SDS_P2;PMS_P1;PMS_P2;Temp;Humidity;BMP_temperature;BMP_pressure;BME280_temperature;BME280_humidity;BME280_pressure;Samples;Min_cycle;Max_cycle;Signal;HPM_P1;HPM_P2
2022/03/03 00:00:27;;;;;;;;;;;4.10;63.80;;;;;;8411414;28;19933;-71
2022/03/03 00:04:28;;;;;;;;;;;4.20;63.60;;;;;;8394482;28;19931;-71
2022/03/03 00:08:30;;;;;;;;;;;4.20;64.70;;;;;;8403777;28;19932;-71
2022/03/03 00:12:32;;;;;;;;;;;4.20;63.90;;;;;;8407110;28;20022;-71
2022/03/03 00:16:35;;;;;;;;;;;4.10;64.10;;;;;;8396386;28;19971;-71
2022/03/03 00:20:37;;;;;;;;;;;4.10;64.30;;;;;;8385559;28;19981;-70
2022/03/03 00:24:39;;;;;;;;;;;4.10;64.40;;;;;;8405051;28;19989;-70
2022/03/03 00:28:40;;;;;;;;;;;4.10;64.80;;;;;;8406121;28;19932;-71
2022/03/03 00:32:42;;;;;;;;;;;4.00;63.80;;;;;;8386105;28;19928;-71
2022/03/03 00:36:44;;;;;;;;;;;4.00;64.10;;;;;;8408341;28;19932;-71
2022/03/03 00:40:45;;;;;;;;;;;4.00;64.30;;;;;;8405433;28;19928;-71
2022/03/03 00:44:47;;;;;;;;;;;4.00;64.00;;;;;;8386044;28;19966;-70
2022/03/03 00:48:49;;;;;;;;;;;4.00;64.60;;;;;;8419048;28;20429;-71
2022/03/03 00:52:50;;;;;;;;;;;4.10;64.40;;;;;;8406735;28;19921;-71
2022/03/03 00:56:52;;;;;;;;;;;4.10;64.80;;;;;;8411550;28;20337;-70
2022/03/03 01:00:53;;;;;;;;;;;4.00;63.70;;;;;;8414384;28;20002;-70
2022/03/03 01:04:59;;;;;;;;;;;4.00;63.60;;;;;;8386534;28;19920;-71
2022/03/03 01:09:02;;;;;;;;;;;4.00;64.10;;;;;;8402162;28;19927;-71
2022/03/03 01:13:04;;;;;;;;;;;3.90;63.60;;;;;;8386743;28;19927;-71
2022/03/03 01:17:05;;;;;;;;;;;3.80;63.60;;;;;;8385503;28;19928;-71
2022/03/03 01:21:07;;;;;;;;;;;3.80;63.60;;;;;;8407745;28;20726;-71
2022/03/03 01:25:08;;;;;;;;;;;3.80;63.90;;;;;;8400293;28;19931;-71
2022/03/03 01:29:10;;;;;;;;;;;3.70;63.60;;;;;;8411053;28;20423;-70
2022/03/03 01:33:12;;;;;;;;;;;3.70;63.60;;;;;;8410121;28;19928;-71
2022/03/03 01:37:13;;;;;;;;;;;3.50;63.70;;;;;;8406730;28;19947;-71
2022/03/03 01:41:15;;;;;;;;;;;3.50;63.80;;;;;;8409071;28;19919;-70
2022/03/03 01:45:17;;;;;;;;;;;3.40;64.00;;;;;;8411566;28;19963;-71
2022/03/03 01:49:18;;;;;;;;;;;3.20;63.70;;;;;;8406196;28;19971;-70
2022/03/03 01:53:20;;;;;;;;;;;3.00;63.60;;;;;;8404232;28;20014;-71
2022/03/03 01:57:22;;;;;;;;;;;2.80;63.90;;;;;;8397159;28;19974;-71
2022/03/03 02:01:24;;;;;;;;;;;2.70;64.50;;;;;;8398963;28;19928;-71
2022/03/03 02:05:25;;;;;;;;;;;2.60;64.60;;;;;;8394105;28;19966;-71
2022/03/03 02:09:27;;;;;;;;;;;2.60;64.50;;;;;;8403271;28;19920;-71
2022/03/03 02:13:29;;;;;;;;;;;2.50;64.50;;;;;;8401333;28;20006;-71
2022/03/03 02:17:30;;;;;;;;;;;2.50;64.80;;;;;;8408366;28;19932;-71
2022/03/03 02:21:32;;;;;;;;;;;2.50;65.60;;;;;;8389815;28;20327;-70
2022/03/03 02:25:33;;;;;;;;;;;2.60;64.60;;;;;;8389335;28;20003;-71
2022/03/03 02:29:36;;;;;;;;;;;2.60;64.80;;;;;;8411662;28;19927;-71
2022/03/03 02:33:37;;;;;;;;;;;2.60;64.90;;;;;;8413346;28;20384;-71
2022/03/03 02:37:40;;;;;;;;;;;2.60;64.60;;;;;;8409296;28;19921;-71
2022/03/03 02:41:42;;;;;;;;;;;2.60;64.70;;;;;;8411561;28;20018;-71
2022/03/03 02:45:43;;;;;;;;;;;2.60;64.30;;;;;;8393686;28;19964;-71
2022/03/03 02:49:45;;;;;;;;;;;2.60;64.40;;;;;;8412036;28;19927;-71
2022/03/03 02:53:46;;;;;;;;;;;2.50;64.30;;;;;;8411812;28;19959;-72
2022/03/03 02:57:54;;;;;;;;;;;2.40;64.50;;;;;;8393576;28;19924;-71
2022/03/03 03:01:56;;;;;;;;;;;2.30;64.30;;;;;;8409270;28;19920;-70
2022/03/03 03:05:57;;;;;;;;;;;2.10;64.80;;;;;;8410423;28;20019;-71
2022/03/03 03:09:59;;;;;;;;;;;2.00;64.90;;;;;;8405653;28;20007;-71
2022/03/03 03:14:01;;;;;;;;;;;1.90;64.90;;;;;;8417468;28;19927;-71
2022/03/03 03:18:13;;;;;;;;;;;1.70;64.60;;;;;;8391868;28;19927;-71
2022/03/03 03:22:15;;;;;;;;;;;1.70;65.20;;;;;;8408673;28;20374;-71
2022/03/03 03:26:16;;;;;;;;;;;1.60;65.40;;;;;;8411438;28;20248;-71
2022/03/03 03:30:18;;;;;;;;;;;1.60;65.90;;;;;;8409663;28;19927;-71
2022/03/03 03:34:19;;;;;;;;;;;1.50;65.70;;;;;;8402227;28;20316;-71
2022/03/03 03:38:21;;;;;;;;;;;1.50;66.10;;;;;;8399306;28;19931;-71
2022/03/03 03:42:23;;;;;;;;;;;1.60;65.40;;;;;;8413494;28;19962;-71
2022/03/03 03:46:24;;;;;;;;;;;1.60;65.20;;;;;;8409490;28;20241;-71
2022/03/03 03:50:28;;;;;;;;;;;1.50;65.00;;;;;;8403280;28;19964;-71
2022/03/03 03:54:30;;;;;;;;;;;1.50;65.00;;;;;;8406400;28;20046;-71
2022/03/03 03:58:31;;;;;;;;;;;1.40;65.00;;;;;;8406240;28;19931;-71
2022/03/03 04:02:33;;;;;;;;;;;1.30;65.10;;;;;;8405534;28;19927;-76
2022/03/03 04:06:36;;;;;;;;;;;1.30;65.30;;;;;;8385265;28;19931;-71
2022/03/03 04:10:38;;;;;;;;;;;1.20;65.50;;;;;;8408958;28;20328;-70
2022/03/03 04:14:39;;;;;;;;;;;1.20;65.70;;;;;;8407367;28;19946;-71
2022/03/03 04:18:41;;;;;;;;;;;1.10;65.50;;;;;;8413682;28;19924;-71
2022/03/03 04:22:43;;;;;;;;;;;1.00;65.60;;;;;;8392311;28;19964;-71
2022/03/03 04:26:44;;;;;;;;;;;0.90;65.70;;;;;;8415781;28;20007;-71
2022/03/03 04:30:47;;;;;;;;;;;0.90;65.90;;;;;;8410525;28;19920;-71
2022/03/03 04:34:49;;;;;;;;;;;0.80;66.00;;;;;;8392121;28;20394;-70
2022/03/03 04:38:51;;;;;;;;;;;0.80;66.10;;;;;;8407957;28;19928;-71
2022/03/03 04:42:53;;;;;;;;;;;0.80;66.10;;;;;;8406864;28;19947;-71
2022/03/03 04:46:54;;;;;;;;;;;0.70;66.20;;;;;;8404654;28;20012;-71
2022/03/03 04:50:59;;;;;;;;;;;0.70;66.20;;;;;;8409315;28;19971;-71
2022/03/03 04:55:01;;;;;;;;;;;0.60;66.60;;;;;;8419310;28;19959;-71
2022/03/03 04:59:04;;;;;;;;;;;0.60;66.70;;;;;;8396720;28;19965;-70
2022/03/03 05:03:05;;;;;;;;;;;0.50;66.40;;;;;;8405979;28;20659;-71
2022/03/03 05:07:07;;;;;;;;;;;0.50;66.60;;;;;;8408790;28;19920;-71
2022/03/03 05:11:09;;;;;;;;;;;0.40;66.80;;;;;;8405913;28;19923;-71
2022/03/03 05:15:11;;;;;;;;;;;0.40;66.90;;;;;;8413980;28;20298;-71
2022/03/03 05:19:12;;;;;;;;;;;0.30;66.90;;;;;;8406865;28;19920;-71
2022/03/03 05:23:14;;;;;;;;;;;0.30;66.70;;;;;;8390069;28;20379;-70
2022/03/03 05:27:16;;;;;;;;;;;0.20;66.70;;;;;;8408393;28;19970;-71
2022/03/03 05:31:18;;;;;;;;;;;0.20;67.00;;;;;;8406900;28;20390;-70
2022/03/03 05:35:21;;;;;;;;;;;0.20;66.90;;;;;;8416643;28;19930;-70
2022/03/03 05:39:23;;;;;;;;;;;0.20;66.90;;;;;;8397094;28;19927;-70
2022/03/03 05:43:26;;;;;;;;;;;0.20;67.00;;;;;;8407111;28;19968;-70
2022/03/03 05:47:28;;;;;;;;;;;0.10;66.90;;;;;;8406063;28;19959;-70
2022/03/03 05:51:31;;;;;;;;;;;0.00;67.00;;;;;;8392210;28;19947;-70
2022/03/03 05:55:37;;;;;;;;;;;0.00;66.90;;;;;;8411335;28;19966;-70
2022/03/03 05:59:40;;;;;;;;;;;0.00;67.30;;;;;;8389706;28;19963;-70
2022/03/03 06:03:42;;;;;;;;;;;-0.10;67.60;;;;;;8407606;28;20375;-70
2022/03/03 06:07:44;;;;;;;;;;;-0.10;67.50;;;;;;8395929;28;20004;-70
2022/03/03 06:11:51;;;;;;;;;;;-0.10;68.20;;;;;;8389020;28;19993;-70
2022/03/03 06:15:53;;;;;;;;;;;-0.10;68.30;;;;;;8404768;28;20051;-70
2022/03/03 06:19:57;;;;;;;;;;;0.00;67.80;;;;;;8414092;28;19974;-70
2022/03/03 06:23:59;;;;;;;;;;;0.00;68.30;;;;;;8417647;28;19927;-70
2022/03/03 06:28:02;;;;;;;;;;;-0.10;67.90;;;;;;8390654;28;20335;-70
2022/03/03 06:32:04;;;;;;;;;;;-0.10;68.30;;;;;;8411018;28;19935;-70
2022/03/03 06:36:06;;;;;;;;;;;-0.10;69.10;;;;;;8400368;28;20034;-70
2022/03/03 06:40:08;;;;;;;;;;;-0.10;69.10;;;;;;8410259;28;19920;-71
2022/03/03 06:44:10;;;;;;;;;;;0.10;69.20;;;;;;8404480;28;19982;-70
2022/03/03 06:48:13;;;;;;;;;;;0.20;69.20;;;;;;8406471;28;19935;-70
2022/03/03 06:52:15;;;;;;;;;;;0.30;70.20;;;;;;8389464;28;19920;-70
2022/03/03 06:56:19;;;;;;;;;;;0.40;69.80;;;;;;8411996;28;20529;-70
2022/03/03 07:00:23;;;;;;;;;;;0.50;70.10;;;;;;8416494;28;19931;-70
2022/03/03 07:04:26;;;;;;;;;;;0.70;70.60;;;;;;8394013;28;19967;-70
2022/03/03 07:08:28;;;;;;;;;;;0.80;70.40;;;;;;8391474;28;19948;-71
2022/03/03 07:12:30;;;;;;;;;;;1.00;71.60;;;;;;8412366;28;19963;-70
2022/03/03 07:16:45;;;;;;;;;;;1.10;71.70;;;;;;8408172;28;19962;-70
2022/03/03 07:20:50;;;;;;;;;;;1.20;70.90;;;;;;8404565;28;20363;-70
2022/03/03 07:24:57;;;;;;;;;;;1.20;71.10;;;;;;8390080;28;19920;-70
2022/03/03 07:29:00;;;;;;;;;;;1.30;71.20;;;;;;8407590;28;19921;-71
2022/03/03 07:33:18;;;;;;;;;;;1.40;72.00;;;;;;8387818;28;19952;-71
2022/03/03 07:37:24;;;;;;;;;;;1.50;71.90;;;;;;8403602;28;20372;-71
2022/03/03 07:41:26;;;;;;;;;;;1.70;72.20;;;;;;8411050;28;19924;-71
2022/03/03 07:45:29;;;;;;;;;;;1.90;72.90;;;;;;8404677;28;20358;-71
2022/03/03 07:49:31;;;;;;;;;;;2.10;72.40;;;;;;8404476;28;19928;-70
2022/03/03 07:53:32;;;;;;;;;;;2.40;72.90;;;;;;8408196;28;19932;-71
2022/03/03 07:57:37;;;;;;;;;;;2.60;73.30;;;;;;8409649;28;19926;-71
2022/03/03 08:01:39;;;;;;;;;;;2.90;73.30;;;;;;8404332;28;19920;-71
2022/03/03 08:05:42;;;;;;;;;;;3.20;73.90;;;;;;8402021;28;20363;-70
2022/03/03 08:09:47;;;;;;;;;;;3.40;74.40;;;;;;8401481;28;19920;-70
2022/03/03 08:13:52;;;;;;;;;;;3.70;74.40;;;;;;8408523;28;19967;-71
2022/03/03 08:17:54;;;;;;;;;;;3.90;74.80;;;;;;8407343;28;20411;-70
2022/03/03 08:21:55;;;;;;;;;;;4.10;74.10;;;;;;8414363;28;19971;-70
2022/03/03 08:25:57;;;;;;;;;;;4.40;74.30;;;;;;8407039;28;19970;-70
2022/03/03 08:30:00;;;;;;;;;;;4.60;75.00;;;;;;8409180;28;19955;-70
2022/03/03 08:34:10;;;;;;;;;;;4.70;74.40;;;;;;8406892;28;19924;-70
2022/03/03 08:38:24;;;;;;;;;;;5.00;75.60;;;;;;8386411;28;19939;-70
2022/03/03 08:42:27;;;;;;;;;;;5.20;75.80;;;;;;8402810;28;19931;-70
2022/03/03 08:46:30;;;;;;;;;;;5.40;75.30;;;;;;8404910;28;19927;-70
2022/03/03 08:50:33;;;;;;;;;;;5.60;75.30;;;;;;8385792;28;20047;-70
2022/03/03 08:54:35;;;;;;;;;;;5.90;75.70;;;;;;8399370;28;19920;-70
2022/03/03 08:58:36;;;;;;;;;;;6.00;75.90;;;;;;8381227;28;20006;-70
2022/03/03 09:02:40;;;;;;;;;;;6.20;75.60;;;;;;8407364;28;19982;-70
2022/03/03 09:06:42;;;;;;;;;;;6.40;75.60;;;;;;8405453;28;20018;-70
2022/03/03 09:10:44;;;;;;;;;;;6.60;76.50;;;;;;8409747;28;19924;-70
2022/03/03 09:14:45;;;;;;;;;;;6.70;76.60;;;;;;8388715;28;19928;-70
2022/03/03 09:18:47;;;;;;;;;;;6.90;76.40;;;;;;8404555;28;19998;-70
2022/03/03 09:22:49;;;;;;;;;;;7.10;76.40;;;;;;8387871;28;19983;-70
2022/03/03 09:26:51;;;;;;;;;;;7.20;76.90;;;;;;8399457;28;20019;-70
2022/03/03 09:30:53;;;;;;;;;;;7.40;76.40;;;;;;8381315;28;19943;-70
2022/03/03 09:34:54;;;;;;;;;;;7.60;76.70;;;;;;8409109;28;19926;-71
2022/03/03 09:38:56;;;;;;;;;;;7.80;76.50;;;;;;8399386;28;19974;-70
2022/03/03 09:42:58;;;;;;;;;;;8.00;76.60;;;;;;8411679;28;20356;-70
2022/03/03 09:47:00;;;;;;;;;;;8.20;76.00;;;;;;8407061;28;20054;-70
2022/03/03 09:51:02;;;;;;;;;;;8.30;75.30;;;;;;8406053;28;19939;-70
2022/03/03 09:55:05;;;;;;;;;;;8.50;76.00;;;;;;8410070;28;20359;-70
2022/03/03 09:59:09;;;;;;;;;;;8.90;76.80;;;;;;8406918;28;20631;-70
2022/03/03 10:03:13;;;;;;;;;;;9.20;78.10;;;;;;8417799;28;20407;-70
2022/03/03 10:07:15;;;;;;;;;;;9.70;80.70;;;;;;8408209;28;19927;-70
2022/03/03 10:11:16;;;;;;;;;;;10.10;82.10;;;;;;8389632;28;19982;-70
2022/03/03 10:15:19;;;;;;;;;;;10.50;85.80;;;;;;8409098;28;19927;-71
2022/03/03 10:19:21;;;;;;;;;;;10.80;86.20;;;;;;8415201;28;20292;-71
2022/03/03 10:23:24;;;;;;;;;;;11.20;90.00;;;;;;8392601;28;20003;-71
2022/03/03 10:27:26;;;;;;;;;;;11.50;90.00;;;;;;8408664;28;20359;-70
2022/03/03 10:31:28;;;;;;;;;;;11.70;90.90;;;;;;8407145;28;19971;-71
2022/03/03 10:35:30;;;;;;;;;;;11.80;85.30;;;;;;8407636;28;20852;-71
2022/03/03 10:39:41;;;;;;;;;;;12.00;86.40;;;;;;8393713;28;19932;-70
2022/03/03 10:43:46;;;;;;;;;;;12.30;88.40;;;;;;8387040;28;19970;-70
2022/03/03 10:47:58;;;;;;;;;;;12.60;87.20;;;;;;8422082;28;19924;-70
2022/03/03 10:52:10;;;;;;;;;;;12.70;81.40;;;;;;8412563;28;19931;-70
2022/03/03 10:56:17;;;;;;;;;;;12.80;83.20;;;;;;8388694;28;19927;-70
2022/03/03 11:00:20;;;;;;;;;;;13.20;81.30;;;;;;8388475;28;20291;-70
2022/03/03 11:04:23;;;;;;;;;;;13.40;87.20;;;;;;8409975;28;19967;-70
2022/03/03 11:08:25;;;;;;;;;;;13.80;87.70;;;;;;8407670;28;19923;-70
2022/03/03 11:12:27;;;;;;;;;;;14.20;90.10;;;;;;8410869;28;19931;-70
2022/03/03 11:16:29;;;;;;;;;;;14.80;90.00;;;;;;8403921;28;19920;-70
2022/03/03 11:20:31;;;;;;;;;;;14.90;90.20;;;;;;8413909;28;19928;-70
2022/03/03 11:24:35;;;;;;;;;;;15.30;91.50;;;;;;8413986;28;19935;-70
2022/03/03 11:28:37;;;;;;;;;;;15.80;90.50;;;;;;8402164;28;19978;-71
2022/03/03 11:32:39;;;;;;;;;;;16.10;90.00;;;;;;8390226;28;20390;-70
2022/03/03 11:36:47;;;;;;;;;;;16.30;90.00;;;;;;8379419;28;20373;-70
2022/03/03 11:40:59;;;;;;;;;;;16.50;88.50;;;;;;8404352;28;19974;-70
2022/03/03 11:45:07;;;;;;;;;;;16.80;88.90;;;;;;8387685;28;19971;-70
2022/03/03 11:49:10;;;;;;;;;;;17.10;84.10;;;;;;8386667;28;19935;-70
2022/03/03 11:53:12;;;;;;;;;;;17.10;81.80;;;;;;8406809;28;20022;-70
2022/03/03 11:57:13;;;;;;;;;;;17.00;79.80;;;;;;8412300;28;19928;-70
2022/03/03 12:01:15;;;;;;;;;;;17.10;79.10;;;;;;8413456;28;19948;-70
2022/03/03 12:05:26;;;;;;;;;;;17.30;77.90;;;;;;8391480;28;20000;-70
2022/03/03 12:09:30;;;;;;;;;;;17.50;78.00;;;;;;8406716;28;19927;-71
2022/03/03 12:13:38;;;;;;;;;;;18.00;74.20;;;;;;8408755;28;20283;-70
2022/03/03 12:17:45;;;;;;;;;;;18.40;75.70;;;;;;8400747;28;19920;-70
2022/03/03 12:21:50;;;;;;;;;;;18.20;70.10;;;;;;8381010;28;20392;-71
2022/03/03 12:26:00;;;;;;;;;;;18.50;75.20;;;;;;8405680;28;20227;-71
2022/03/03 12:30:07;;;;;;;;;;;19.00;81.80;;;;;;8397192;28;19931;-71
2022/03/03 12:34:19;;;;;;;;;;;19.30;74.70;;;;;;8398839;28;19926;-71
2022/03/03 12:38:21;;;;;;;;;;;19.40;77.10;;;;;;8405272;28;19920;-70
2022/03/03 12:42:24;;;;;;;;;;;19.10;70.40;;;;;;8387034;28;19927;-71
2022/03/03 12:46:26;;;;;;;;;;;18.70;62.40;;;;;;8389365;28;20019;-71
2022/03/03 12:50:29;;;;;;;;;;;18.70;68.40;;;;;;8402494;28;19946;-71
2022/03/03 12:54:31;;;;;;;;;;;18.60;67.70;;;;;;8380628;28;19927;-71
2022/03/03 12:58:33;;;;;;;;;;;18.80;69.90;;;;;;8404812;28;19972;-71
2022/03/03 13:02:47;;;;;;;;;;;19.10;67.80;;;;;;8404500;28;20159;-71
2022/03/03 13:07:03;;;;;;;;;;;19.50;68.90;;;;;;8384821;28;19920;-71
2022/03/03 13:11:06;;;;;;;;;;;19.50;72.60;;;;;;8399876;28;19967;-71
2022/03/03 13:15:07;;;;;;;;;;;19.00;67.50;;;;;;8400649;28;19935;-71
2022/03/03 13:19:09;;;;;;;;;;;18.20;63.60;;;;;;8386193;28;19935;-71
2022/03/03 13:23:13;;;;;;;;;;;17.50;57.10;;;;;;8409495;28;19939;-71
2022/03/03 13:27:15;;;;;;;;;;;17.00;55.50;;;;;;8392106;28;20392;-71
2022/03/03 13:31:18;;;;;;;;;;;16.70;53.50;;;;;;8403825;28;21542;-71
2022/03/03 13:35:20;;;;;;;;;;;16.40;53.20;;;;;;8403978;28;19934;-71
2022/03/03 13:39:30;;;;;;;;;;;16.30;51.70;;;;;;8402298;28;19939;-71
2022/03/03 13:43:33;;;;;;;;;;;16.00;51.70;;;;;;8390886;28;21208;-71
2022/03/03 13:47:39;;;;;;;;;;;16.10;51.60;;;;;;8399985;28;19932;-71
2022/03/03 13:51:40;;;;;;;;;;;16.00;52.20;;;;;;8402572;28;20334;-71
2022/03/03 13:55:42;;;;;;;;;;;16.00;51.50;;;;;;8403634;28;20340;-71
2022/03/03 13:59:53;;;;;;;;;;;15.90;50.60;;;;;;8400068;28;19924;-71
2022/03/03 14:03:55;;;;;;;;;;;15.80;50.50;;;;;;8399570;28;19932;-71
2022/03/03 14:07:56;;;;;;;;;;;15.80;50.60;;;;;;8407458;28;19960;-71
2022/03/03 14:12:12;;;;;;;;;;;15.80;50.60;;;;;;8390273;28;19931;-71
2022/03/03 14:16:14;;;;;;;;;;;15.80;49.40;;;;;;8393090;28;19977;-71
2022/03/03 14:20:16;;;;;;;;;;;15.70;50.20;;;;;;8404933;28;19946;-71
2022/03/03 14:24:19;;;;;;;;;;;15.80;50.70;;;;;;8389254;28;20643;-70
2022/03/03 14:28:33;;;;;;;;;;;15.90;49.80;;;;;;8387460;28;19935;-71
2022/03/03 14:32:35;;;;;;;;;;;15.90;50.40;;;;;;8388507;28;20379;-71
2022/03/03 14:36:36;;;;;;;;;;;16.20;50.60;;;;;;8387962;28;19976;-71
2022/03/03 14:40:38;;;;;;;;;;;17.10;52.40;;;;;;8408964;28;19934;-71
2022/03/03 14:44:40;;;;;;;;;;;18.50;56.20;;;;;;8414204;28;19992;-71
2022/03/03 14:48:41;;;;;;;;;;;19.30;57.00;;;;;;8414901;28;19924;-71
2022/03/03 14:52:43;;;;;;;;;;;20.10;56.70;;;;;;8408535;28;19924;-71
2022/03/03 14:56:45;;;;;;;;;;;20.80;57.90;;;;;;8400449;28;20365;-71
2022/03/03 15:00:46;;;;;;;;;;;21.40;53.10;;;;;;8407214;28;19925;-71
2022/03/03 15:04:48;;;;;;;;;;;21.50;53.20;;;;;;8391456;28;19928;-71
2022/03/03 15:08:50;;;;;;;;;;;21.60;54.60;;;;;;8408742;28;19971;-71
2022/03/03 15:12:52;;;;;;;;;;;21.90;55.70;;;;;;8409001;28;19970;-71
2022/03/03 15:16:54;;;;;;;;;;;22.20;54.00;;;;;;8402411;28;20147;-71
2022/03/03 15:20:55;;;;;;;;;;;22.20;52.90;;;;;;8403533;28;19942;-71
2022/03/03 15:24:57;;;;;;;;;;;22.00;51.90;;;;;;8401192;28;19975;-71
2022/03/03 15:28:58;;;;;;;;;;;22.20;51.50;;;;;;8401120;28;20062;-71
2022/03/03 15:33:00;;;;;;;;;;;22.50;50.70;;;;;;8387145;28;20351;-71
2022/03/03 15:37:02;;;;;;;;;;;22.10;47.70;;;;;;8407190;28;20402;-71
2022/03/03 15:41:04;;;;;;;;;;;21.50;47.10;;;;;;8409447;28;19975;-71
2022/03/03 15:45:06;;;;;;;;;;;20.70;45.50;;;;;;8387439;28;20023;-71
2022/03/03 15:49:07;;;;;;;;;;;20.10;44.90;;;;;;8404748;28;20347;-71
2022/03/03 15:53:10;;;;;;;;;;;20.10;44.50;;;;;;8401093;28;19933;-71
2022/03/03 15:57:12;;;;;;;;;;;20.10;43.90;;;;;;8393255;28;19928;-71
2022/03/03 16:01:14;;;;;;;;;;;20.10;44.50;;;;;;8412626;28;19933;-71
2022/03/03 16:05:16;;;;;;;;;;;20.20;44.60;;;;;;8404501;28;20334;-71
2022/03/03 16:09:17;;;;;;;;;;;20.40;45.40;;;;;;8407209;28;19972;-71
2022/03/03 16:13:19;;;;;;;;;;;20.40;44.70;;;;;;8408103;28;19935;-71
2022/03/03 16:17:26;;;;;;;;;;;20.10;43.70;;;;;;8397549;28;19964;-71
2022/03/03 16:21:27;;;;;;;;;;;19.20;42.70;;;;;;8413115;28;19982;-71
2022/03/03 16:25:29;;;;;;;;;;;18.70;43.20;;;;;;8405437;28;19971;-71
2022/03/03 16:29:30;;;;;;;;;;;18.40;42.30;;;;;;8392400;28;20398;-71
2022/03/03 16:33:38;;;;;;;;;;;17.80;41.90;;;;;;8411603;28;19931;-71
2022/03/03 16:37:40;;;;;;;;;;;17.60;42.00;;;;;;8406731;28;19983;-71
2022/03/03 16:41:42;;;;;;;;;;;17.30;41.20;;;;;;8410194;28;19924;-71
2022/03/03 16:45:43;;;;;;;;;;;16.80;40.90;;;;;;8386267;28;19968;-71
2022/03/03 16:49:45;;;;;;;;;;;16.30;40.70;;;;;;8389305;28;19935;-71
2022/03/03 16:53:47;;;;;;;;;;;15.80;40.60;;;;;;8388892;28;19950;-71
2022/03/03 16:57:48;;;;;;;;;;;15.40;40.60;;;;;;8369820;28;19928;-71
2022/03/03 17:02:03;;;;;;;;;;;15.10;40.60;;;;;;8387292;28;20414;-71
2022/03/03 17:06:05;;;;;;;;;;;14.70;40.40;;;;;;8393070;28;19928;-71
2022/03/03 17:10:10;;;;;;;;;;;14.40;40.30;;;;;;8394269;28;19947;-71
2022/03/03 17:14:12;;;;;;;;;;;14.00;40.20;;;;;;8396083;28;19924;-71
2022/03/03 17:18:15;;;;;;;;;;;13.70;40.20;;;;;;8396221;28;20371;-71
2022/03/03 17:22:19;;;;;;;;;;;13.30;40.40;;;;;;8392689;28;20699;-71
2022/03/03 17:26:20;;;;;;;;;;;13.00;40.50;;;;;;8371426;28;20284;-71
2022/03/03 17:30:23;;;;;;;;;;;12.80;40.70;;;;;;8381199;28;20356;-71
2022/03/03 17:34:25;;;;;;;;;;;12.70;41.00;;;;;;8396810;28;19924;-71
2022/03/03 17:38:27;;;;;;;;;;;12.40;41.10;;;;;;8394343;28;19928;-71
2022/03/03 17:42:29;;;;;;;;;;;12.10;41.30;;;;;;8382957;28;20035;-71
2022/03/03 17:46:32;;;;;;;;;;;11.90;41.40;;;;;;8388781;28;19956;-71
2022/03/03 17:50:34;;;;;;;;;;;11.70;41.50;;;;;;8395391;28;19986;-71
2022/03/03 17:54:35;;;;;;;;;;;11.50;41.70;;;;;;8368806;28;19929;-71
2022/03/03 17:58:37;;;;;;;;;;;11.30;42.00;;;;;;8398275;28;19999;-71
2022/03/03 18:02:40;;;;;;;;;;;11.20;42.20;;;;;;8373522;28;19952;-71
2022/03/03 18:06:42;;;;;;;;;;;11.10;42.40;;;;;;8378552;28;20391;-71
2022/03/03 18:10:44;;;;;;;;;;;10.90;42.90;;;;;;8391785;28;19932;-71
2022/03/03 18:14:46;;;;;;;;;;;10.70;43.00;;;;;;8398940;28;19931;-71
2022/03/03 18:18:47;;;;;;;;;;;10.60;43.30;;;;;;8396419;28;20019;-71
2022/03/03 18:22:49;;;;;;;;;;;10.50;43.40;;;;;;8386324;28;20022;-71
2022/03/03 18:26:52;;;;;;;;;;;10.30;43.60;;;;;;8381022;28;20047;-71
2022/03/03 18:30:53;;;;;;;;;;;10.30;43.70;;;;;;8399010;28;20047;-71
2022/03/03 18:34:55;;;;;;;;;;;10.20;44.00;;;;;;8398819;28;20376;-71
2022/03/03 18:38:57;;;;;;;;;;;10.10;44.00;;;;;;8382645;28;20027;-71
2022/03/03 18:43:00;;;;;;;;;;;10.00;44.20;;;;;;8396654;28;19939;-71
2022/03/03 18:47:02;;;;;;;;;;;9.90;45.50;;;;;;8392671;28;19936;-71
2022/03/03 18:51:05;;;;;;;;;;;9.80;45.60;;;;;;8396947;28;19928;-71
2022/03/03 18:55:06;;;;;;;;;;;9.70;46.10;;;;;;8394009;28;20350;-71
2022/03/03 18:59:08;;;;;;;;;;;9.60;46.50;;;;;;8391574;28;19924;-71
2022/03/03 19:03:12;;;;;;;;;;;9.50;46.30;;;;;;8395055;28;20388;-71
2022/03/03 19:07:16;;;;;;;;;;;9.50;46.70;;;;;;8386381;28;20376;-71
2022/03/03 19:11:18;;;;;;;;;;;9.40;46.70;;;;;;8380447;28;19928;-71
2022/03/03 19:15:20;;;;;;;;;;;9.30;47.00;;;;;;8377210;28;20000;-71
2022/03/03 19:19:22;;;;;;;;;;;9.20;48.10;;;;;;8370692;28;19933;-71
2022/03/03 19:23:23;;;;;;;;;;;9.10;48.90;;;;;;8389310;28;19955;-71
2022/03/03 19:27:25;;;;;;;;;;;9.10;48.60;;;;;;8390399;28;19928;-71
2022/03/03 19:31:27;;;;;;;;;;;9.00;48.40;;;;;;8380588;28;20034;-71
2022/03/03 19:35:29;;;;;;;;;;;9.00;48.70;;;;;;8373941;28;20136;-71
2022/03/03 19:39:30;;;;;;;;;;;9.00;49.20;;;;;;8386662;28;19932;-71
2022/03/03 19:43:32;;;;;;;;;;;8.90;51.00;;;;;;8392939;28;20010;-71
2022/03/03 19:47:34;;;;;;;;;;;8.90;49.10;;;;;;8394740;28;20384;-71
2022/03/03 19:51:36;;;;;;;;;;;8.90;50.10;;;;;;8379264;28;19931;-71
2022/03/03 19:55:38;;;;;;;;;;;8.90;49.30;;;;;;8393504;28;20451;-71
2022/03/03 19:59:40;;;;;;;;;;;8.80;49.20;;;;;;8392313;28;20142;-71
2022/03/03 20:03:41;;;;;;;;;;;8.70;48.80;;;;;;8375354;28;19974;-71
2022/03/03 20:07:43;;;;;;;;;;;8.60;48.50;;;;;;8366687;28;20110;-71
2022/03/03 20:11:45;;;;;;;;;;;8.50;48.50;;;;;;8394579;28;20394;-71
2022/03/03 20:15:47;;;;;;;;;;;8.40;48.70;;;;;;8390975;28;19933;-71
2022/03/03 20:19:48;;;;;;;;;;;8.30;49.10;;;;;;8399073;28;19935;-71
2022/03/03 20:23:51;;;;;;;;;;;8.10;49.00;;;;;;8393414;28;19939;-71
2022/03/03 20:27:52;;;;;;;;;;;8.00;49.40;;;;;;8374540;28;20350;-71
2022/03/03 20:31:57;;;;;;;;;;;7.90;50.00;;;;;;8396478;28;19931;-71
2022/03/03 20:35:59;;;;;;;;;;;7.80;49.70;;;;;;8393951;28;20399;-71
2022/03/03 20:40:01;;;;;;;;;;;7.70;49.70;;;;;;8369041;28;20011;-71
2022/03/03 20:44:02;;;;;;;;;;;7.60;50.10;;;;;;8372439;28;24198;-71
2022/03/03 20:48:04;;;;;;;;;;;7.60;50.50;;;;;;8390064;28;19928;-71
2022/03/03 20:52:06;;;;;;;;;;;7.50;50.60;;;;;;8390793;28;19936;-71
2022/03/03 20:56:08;;;;;;;;;;;7.40;51.80;;;;;;8396388;28;19932;-71
2022/03/03 21:00:10;;;;;;;;;;;7.30;50.30;;;;;;8375638;28;19924;-71
2022/03/03 21:04:11;;;;;;;;;;;7.20;50.50;;;;;;8396406;28;19924;-71
2022/03/03 21:08:13;;;;;;;;;;;7.10;50.80;;;;;;8397708;28;19928;-71
2022/03/03 21:12:15;;;;;;;;;;;7.10;51.00;;;;;;8385759;28;19932;-71
2022/03/03 21:16:16;;;;;;;;;;;7.00;50.80;;;;;;8391751;28;19967;-71
2022/03/03 21:20:18;;;;;;;;;;;6.90;51.20;;;;;;8374653;28;19932;-71
2022/03/03 21:24:20;;;;;;;;;;;6.80;52.80;;;;;;8372142;28;19931;-71
2022/03/03 21:28:22;;;;;;;16.15;8.88;;;6.80;51.40;;;;;;8390545;28;20378;-71
2022/03/03 21:32:24;;;;;;;15.75;8.95;;;6.70;51.60;;;;;;8389496;28;20052;-71
2022/03/03 21:36:25;;;;;;;16.17;8.43;;;6.60;52.10;;;;;;8386911;28;20054;-71
2022/03/03 21:40:27;;;;;;;14.70;8.00;;;6.50;51.60;;;;;;8392929;28;20433;-71
2022/03/03 21:44:29;;;;;;;18.50;10.13;;;6.40;51.80;;;;;;8373202;28;20052;-71
2022/03/03 21:48:31;;;;;;;16.02;8.40;;;6.40;52.50;;;;;;8370576;28;20078;-71
2022/03/03 21:52:36;;;;;;;;;;;6.30;52.30;;;;;;8385077;28;20123;-70
2022/03/03 21:56:38;;;;;;;;;;;6.30;52.20;;;;;;8372849;28;20409;-71
2022/03/03 22:00:39;;;;;;;;;;;6.30;52.40;;;;;;8389350;28;20316;-71
2022/03/03 22:04:41;;;;;;;;;;;6.20;52.30;;;;;;8378847;28;20257;-71
2022/03/03 22:08:43;;;;;;;;;;;6.10;52.20;;;;;;8388879;28;20347;-71
2022/03/03 22:12:44;;;;;;;;;;;6.10;52.40;;;;;;8415225;28;19924;-71
2022/03/03 22:16:46;;;;;;;;;;;6.00;53.20;;;;;;8399623;28;19927;-71
2022/03/03 22:20:48;;;;;;;;;;;5.90;52.40;;;;;;8409019;28;19927;-71
2022/03/03 22:24:50;;;;;;;;;;;5.80;52.80;;;;;;8379977;28;19967;-71
2022/03/03 22:28:52;;;;;;;;;;;5.70;53.10;;;;;;8407456;28;19964;-71
2022/03/03 22:32:54;;;;;;;;;;;5.70;52.90;;;;;;8399062;28;19927;-71
2022/03/03 22:36:56;;;;;;;;;;;5.60;52.30;;;;;;8402685;28;20014;-71
2022/03/03 22:40:57;;;;;;;;;;;5.60;52.90;;;;;;8405199;28;19957;-71
2022/03/03 22:44:59;;;;;;;;;;;5.60;53.20;;;;;;8405069;28;19928;-71
2022/03/03 22:49:01;;;;;;;;;;;5.50;53.50;;;;;;8409420;28;19923;-71
2022/03/03 22:53:02;;;;;;;;;;;5.40;53.80;;;;;;8391725;28;19928;-71
2022/03/03 22:57:04;;;;;;;;;;;5.40;53.30;;;;;;8383671;28;19969;-71
2022/03/03 23:01:05;;;;;;;;;;;5.40;52.30;;;;;;8408841;28;19966;-71
2022/03/03 23:05:09;;;;;;;;;;;5.30;53.80;;;;;;8402842;28;19920;-71
2022/03/03 23:09:14;;;;;;;;;;;5.30;52.80;;;;;;8393171;28;19943;-71
2022/03/03 23:13:20;;;;;;;;;;;5.20;53.10;;;;;;8405992;28;20439;-71
2022/03/03 23:17:24;;;;;;;;;;;5.20;53.60;;;;;;8391756;28;19927;-71
2022/03/03 23:21:33;;;;;;;;;;;5.20;53.20;;;;;;8387089;28;19927;-70
2022/03/03 23:25:37;;;;;;;;;;;5.20;54.90;;;;;;8404097;28;20286;-71
2022/03/03 23:29:39;;;;;;;;;;;5.20;53.60;;;;;;8414152;28;20284;-71
2022/03/03 23:33:41;;;;;;;;;;;5.20;53.40;;;;;;8401975;28;19920;-71
2022/03/03 23:37:42;;;;;;;;;;;5.20;52.90;;;;;;8404415;28;20255;-71
2022/03/03 23:41:44;;;;;;;;;;;5.20;53.30;;;;;;8399843;28;19943;-71